createdAt,value
2018-09-15T00:01:55.361Z,101392.91
2018-09-15T00:04:23.797Z,101392.31
2018-09-15T00:06:50.491Z,101388.80
2018-09-15T00:09:17.169Z,101387.60
2018-09-15T00:11:43.838Z,101384.59
2018-09-15T00:14:10.486Z,101388.23
2018-09-15T00:16:38.095Z,101386.91
2018-09-15T00:19:05.689Z,101387.00
2018-09-15T00:21:33.316Z,101381.45
2018-09-15T00:24:01.009Z,101385.67
2018-09-15T00:26:28.749Z,101384.10
2018-09-15T00:28:56.368Z,101374.81
2018-09-15T00:31:23.965Z,101381.45
2018-09-15T00:33:51.787Z,101385.79
2018-09-15T00:36:19.085Z,101378.58
2018-09-15T00:38:46.546Z,101384.73
2018-09-15T00:41:14.100Z,101380.83
2018-09-15T00:43:41.714Z,101386.14
2018-09-15T00:46:09.693Z,101381.59
2018-09-15T00:48:37.144Z,101373.84
2018-09-15T00:51:04.668Z,101369.84
2018-09-15T00:53:31.376Z,101362.86
2018-09-15T00:55:59.707Z,101364.19
2018-09-15T00:58:26.393Z,101357.20
2018-09-15T01:00:55.573Z,101357.69
2018-09-15T01:03:24.120Z,101360.45
2018-09-15T01:05:50.786Z,101364.33
2018-09-15T01:08:18.411Z,101362.02
2018-09-15T01:10:45.960Z,101364.53
2018-09-15T01:13:12.672Z,101366.26
2018-09-15T01:15:40.132Z,101364.34
2018-09-15T01:18:07.654Z,101366.60
2018-09-15T01:20:34.324Z,101362.16
2018-09-15T01:23:00.984Z,101356.36
2018-09-15T01:25:27.658Z,101359.97
2018-09-15T01:27:54.601Z,101359.13
2018-09-15T01:30:21.260Z,101358.63
2018-09-15T01:32:47.897Z,101354.30
2018-09-15T01:35:14.543Z,101356.84
2018-09-15T01:37:41.207Z,101355.98
2018-09-15T01:40:07.919Z,101364.33
2018-09-15T01:42:35.524Z,101355.52
2018-09-15T01:45:03.357Z,101353.21
2018-09-15T01:47:31.024Z,101354.44
2018-09-15T01:49:58.710Z,101354.79
2018-09-15T01:52:26.237Z,101357.69
2018-09-15T01:54:55.136Z,101361.92
2018-09-15T01:57:23.903Z,101363.01
2018-09-15T01:59:51.568Z,101357.09
2018-09-15T02:02:19.168Z,101350.95
2018-09-15T02:04:46.644Z,101356.86
2018-09-15T02:07:14.244Z,101357.98
2018-09-15T02:09:41.904Z,101364.72
2018-09-15T02:12:09.568Z,101366.30
2018-09-15T02:14:36.216Z,101370.98
2018-09-15T02:17:02.920Z,101361.47
2018-09-15T02:19:29.573Z,101366.64
2018-09-15T02:21:56.240Z,101362.90
2018-09-15T02:24:24.315Z,101370.03
2018-09-15T02:26:50.979Z,101376.78
2018-09-15T02:29:17.646Z,101380.66
2018-09-15T02:31:44.345Z,101384.27
2018-09-15T02:34:11.033Z,101381.14
2018-09-15T02:36:37.744Z,101372.70
2018-09-15T02:39:05.584Z,101381.25
2018-09-15T02:41:32.253Z,101371.47
2018-09-15T02:43:58.904Z,101374.27
2018-09-15T02:46:25.549Z,101372.20
2018-09-15T02:48:53.265Z,101375.59
2018-09-15T02:51:20.848Z,101376.78
2018-09-15T02:53:49.105Z,101369.19
2018-09-15T02:56:16.626Z,101372.45
2018-09-15T02:58:43.950Z,101372.59
2018-09-15T03:01:10.896Z,101370.28
2018-09-15T03:03:37.572Z,101378.25
2018-09-15T03:06:05.157Z,101377.16
2018-09-15T03:08:31.823Z,101383.56
2018-09-15T03:10:58.512Z,101377.41
2018-09-15T03:13:25.169Z,101381.39
2018-09-15T03:15:53.989Z,101379.44
2018-09-15T03:18:21.652Z,101381.88
2018-09-15T03:20:49.273Z,101388.73
2018-09-15T03:23:15.936Z,101385.48
2018-09-15T03:25:43.532Z,101389.26
2018-09-15T03:28:11.068Z,101387.20
2018-09-15T03:30:38.729Z,101386.36
2018-09-15T03:33:06.363Z,101384.54
2018-09-15T03:35:33.051Z,101388.52
2018-09-15T03:38:00.597Z,101387.55
2018-09-15T03:40:28.185Z,101395.27
2018-09-15T03:42:56.924Z,101395.27
2018-09-15T03:45:24.772Z,101391.77
2018-09-15T03:47:51.413Z,101397.72
2018-09-15T03:50:18.076Z,101402.44
2018-09-15T03:52:44.712Z,101398.06
2018-09-15T03:55:11.393Z,101402.05
2018-09-15T03:57:38.997Z,101401.80
2018-09-15T04:00:05.669Z,101405.69
2018-09-15T04:02:32.327Z,101407.98
2018-09-15T04:04:58.972Z,101408.83
2018-09-15T04:07:25.617Z,101407.98
2018-09-15T04:09:53.389Z,101409.67
2018-09-15T04:12:20.052Z,101411.84
2018-09-15T04:14:46.899Z,101416.17
2018-09-15T04:17:14.571Z,101410.86
2018-09-15T04:19:41.312Z,101413.41
2018-09-15T04:22:08.779Z,101418.61
2018-09-15T04:24:35.475Z,101413.41
2018-09-15T04:27:03.109Z,101404.25
2018-09-15T04:29:29.816Z,101413.89
2018-09-15T04:31:57.382Z,101415.58
2018-09-15T04:34:24.684Z,101420.40
2018-09-15T04:36:53.697Z,101424.31
2018-09-15T04:39:20.472Z,101424.38
2018-09-15T04:41:48.060Z,101434.06
2018-09-15T04:44:14.628Z,101425.71
2018-09-15T04:46:42.156Z,101432.35
2018-09-15T04:49:08.846Z,101428.39
2018-09-15T04:51:36.357Z,101445.91
2018-09-15T04:54:04.045Z,101439.62
2018-09-15T04:56:31.756Z,101449.75
2018-09-15T04:58:58.613Z,101450.70
2018-09-15T05:01:25.281Z,101450.59
2018-09-15T05:03:53.938Z,101442.97
2018-09-15T05:06:21.628Z,101444.80
2018-09-15T05:08:48.309Z,101442.87
2018-09-15T05:11:14.969Z,101455.80
2018-09-15T05:13:42.620Z,101458.67
2018-09-15T05:16:09.296Z,101471.63
2018-09-15T05:18:36.101Z,101478.38
2018-09-15T05:21:03.761Z,101479.95
2018-09-15T05:23:32.038Z,101472.70
2018-09-15T05:26:00.361Z,101477.42
2018-09-15T05:28:27.904Z,101475.23
2018-09-15T05:30:55.448Z,101477.88
2018-09-15T05:33:24.114Z,101472.33
2018-09-15T05:35:50.948Z,101474.63
2018-09-15T05:38:18.556Z,101473.66
2018-09-15T05:40:46.241Z,101471.24
2018-09-15T05:43:13.862Z,101465.55
2018-09-15T05:45:41.511Z,101462.33
2018-09-15T05:48:08.174Z,101465.20
2018-09-15T05:50:34.861Z,101473.30
2018-09-15T05:53:01.497Z,101479.59
2018-09-15T05:55:29.183Z,101492.39
2018-09-15T05:57:55.829Z,101496.48
2018-09-15T06:00:24.603Z,101505.28
2018-09-15T06:02:53.245Z,101511.93
2018-09-15T06:05:20.953Z,101511.44
2018-09-15T06:07:48.759Z,101519.73
2018-09-15T06:10:15.448Z,101527.11
2018-09-15T06:12:43.065Z,101531.91
2018-09-15T06:15:10.725Z,101533.88
2018-09-15T06:17:38.321Z,101539.19
2018-09-15T06:20:05.112Z,101535.45
2018-09-15T06:22:31.772Z,101546.08
2018-09-15T06:24:58.454Z,101550.41
2018-09-15T06:27:25.128Z,101549.30
2018-09-15T06:29:51.847Z,101550.77
2018-09-15T06:32:19.312Z,101559.58
2018-09-15T06:34:46.008Z,101563.78
2018-09-15T06:37:12.679Z,101569.10
2018-09-15T06:39:40.431Z,101569.45
2018-09-15T06:42:07.102Z,101568.26
2018-09-15T06:44:33.777Z,101570.18
2018-09-15T06:47:00.424Z,101570.91
2018-09-15T06:49:28.012Z,101571.64
2018-09-15T06:51:55.661Z,101578.29
2018-09-15T06:54:23.722Z,101579.19
2018-09-15T06:56:50.364Z,101579.38
2018-09-15T06:59:17.051Z,101575.53
2018-09-15T07:01:44.692Z,101578.57
2018-09-15T07:04:12.651Z,101577.00
2018-09-15T07:06:39.375Z,101571.46
2018-09-15T07:09:06.926Z,101579.51
2018-09-15T07:11:34.500Z,101582.32
2018-09-15T07:14:01.173Z,101588.48
2018-09-15T07:16:27.844Z,101589.08
2018-09-15T07:18:54.816Z,101591.59
2018-09-15T07:21:23.304Z,101586.27
2018-09-15T07:23:50.877Z,101589.30
2018-09-15T07:26:18.716Z,101594.12
2018-09-15T07:28:46.810Z,101591.36
2018-09-15T07:31:14.457Z,101596.67
2018-09-15T07:33:41.952Z,101597.49
2018-09-15T07:36:09.177Z,101599.92
2018-09-15T07:38:35.868Z,101598.70
2018-09-15T07:41:04.162Z,101602.10
2018-09-15T07:43:32.912Z,101605.26
2018-09-15T07:46:00.884Z,101608.97
2018-09-15T07:48:27.589Z,101610.17
2018-09-15T07:50:55.088Z,101612.46
2018-09-15T07:53:21.804Z,101613.16
2018-09-15T07:55:49.248Z,101618.12
2018-09-15T07:58:15.944Z,101610.89
2018-09-15T08:00:42.632Z,101615.72
2018-09-15T08:03:09.481Z,101618.73
2018-09-15T08:05:36.137Z,101614.72
2018-09-15T08:08:03.645Z,101622.69
2018-09-15T08:10:30.311Z,101628.01
2018-09-15T08:12:56.956Z,101635.14
2018-09-15T08:15:24.849Z,101632.97
2018-09-15T08:17:51.482Z,101633.33
2018-09-15T08:20:19.117Z,101632.84
2018-09-15T08:22:45.865Z,101643.47
2018-09-15T08:25:12.544Z,101630.66
2018-09-15T08:27:39.209Z,101629.58
2018-09-15T08:30:05.887Z,101631.62
2018-09-15T08:32:32.580Z,101639.99
2018-09-15T08:34:59.264Z,101638.02
2018-09-15T08:37:26.886Z,101646.34
2018-09-15T08:39:54.968Z,101645.64
2018-09-15T08:42:21.605Z,101647.33
2018-09-15T08:44:48.284Z,101640.44
2018-09-15T08:47:14.933Z,101642.02
2018-09-15T08:49:41.592Z,101653.23
2018-09-15T08:52:08.301Z,101648.30
2018-09-15T08:54:35.054Z,101650.13
2018-09-15T08:57:02.490Z,101645.13
2018-09-15T08:59:29.135Z,101650.69
2018-09-15T09:01:55.772Z,101646.38
2018-09-15T09:04:26.000Z,101649.77
2018-09-15T09:06:54.043Z,101654.10
2018-09-15T09:09:20.725Z,101650.84
2018-09-15T09:11:47.416Z,101656.03
2018-09-15T09:14:14.048Z,101652.78
2018-09-15T09:16:40.760Z,101648.14
2018-09-15T09:19:07.435Z,101650.80
2018-09-15T09:21:34.153Z,101651.41
2018-09-15T09:24:01.669Z,101649.02
2018-09-15T09:26:29.467Z,101651.80
2018-09-15T09:28:56.032Z,101651.45
2018-09-15T09:31:28.005Z,101649.88
2018-09-15T09:33:55.398Z,101643.86
2018-09-15T09:36:25.293Z,101640.08
2018-09-15T09:38:51.988Z,101636.72
2018-09-15T09:41:18.874Z,101637.66
2018-09-15T09:43:45.546Z,101639.38
2018-09-15T09:46:12.231Z,101635.61
2018-09-15T09:48:38.893Z,101638.99
2018-09-15T09:51:05.542Z,101637.07
2018-09-15T09:53:32.164Z,101642.73
2018-09-15T09:55:59.624Z,101637.20
2018-09-15T09:58:26.252Z,101647.22
2018-09-15T10:00:59.036Z,101642.52
2018-09-15T10:03:25.805Z,101644.93
2018-09-15T10:05:54.876Z,101646.97
2018-09-15T10:08:21.621Z,101648.78
2018-09-15T10:10:48.261Z,101658.92
2018-09-15T10:13:15.716Z,101657.59
2018-09-15T10:15:43.223Z,101656.66
2018-09-15T10:18:09.965Z,101655.81
2018-09-15T10:20:36.600Z,101657.01
2018-09-15T10:23:03.232Z,101651.20
2018-09-15T10:25:29.872Z,101655.44
2018-09-15T10:27:57.488Z,101655.54
2018-09-15T10:30:25.061Z,101658.69
2018-09-15T10:32:51.702Z,101658.20
2018-09-15T10:35:19.188Z,101651.06
2018-09-15T10:37:46.634Z,101652.18
2018-09-15T10:40:13.296Z,101659.53
2018-09-15T10:42:39.979Z,101653.63
2018-09-15T10:45:06.689Z,101652.05
2018-09-15T10:47:33.308Z,101652.18
2018-09-15T10:49:59.943Z,101654.34
2018-09-15T10:52:26.645Z,101656.28
2018-09-15T10:54:54.964Z,101649.52
2018-09-15T10:57:21.769Z,101652.42
2018-09-15T10:59:48.509Z,101651.69
2018-09-15T11:02:16.006Z,101662.19
2018-09-15T11:04:45.324Z,101664.98
2018-09-15T11:07:12.165Z,101666.31
2018-09-15T11:09:38.813Z,101655.81
2018-09-15T11:12:05.580Z,101662.32
2018-09-15T11:14:32.316Z,101653.51
2018-09-15T11:16:59.046Z,101656.03
2018-09-15T11:19:25.681Z,101650.02
2018-09-15T11:21:53.600Z,101651.20
2018-09-15T11:24:20.292Z,101650.84
2018-09-15T11:26:46.945Z,101646.02
2018-09-15T11:29:14.525Z,101650.02
2018-09-15T11:31:41.165Z,101642.88
2018-09-15T11:34:07.905Z,101654.59
2018-09-15T11:36:34.893Z,101648.19
2018-09-15T11:39:01.614Z,101648.41
2018-09-15T11:41:28.256Z,101651.20
2018-09-15T11:43:54.972Z,101651.20
2018-09-15T11:46:21.641Z,101653.66
2018-09-15T11:48:48.285Z,101653.72
2018-09-15T11:51:14.941Z,101649.39
2018-09-15T11:53:41.650Z,101640.22
2018-09-15T11:56:08.459Z,101640.08
2018-09-15T11:58:35.090Z,101651.55
2018-09-15T12:01:02.808Z,101654.11
2018-09-15T12:03:29.697Z,101645.75
2018-09-15T12:05:59.154Z,101643.48
2018-09-15T12:08:26.140Z,101642.73
2018-09-15T12:10:53.885Z,101642.03
2018-09-15T12:13:20.722Z,101649.52
2018-09-15T12:15:48.033Z,101642.39
2018-09-15T12:18:14.876Z,101650.02
2018-09-15T12:20:42.948Z,101646.86
2018-09-15T12:23:10.507Z,101647.94
2018-09-15T12:25:38.128Z,101643.36
2018-09-15T12:28:04.848Z,101644.31
2018-09-15T12:30:32.460Z,101646.52
2018-09-15T12:33:00.114Z,101640.08
2018-09-15T12:35:27.846Z,101644.89
2018-09-15T12:37:55.455Z,101652.59
2018-09-15T12:40:23.173Z,101651.38
2018-09-15T12:42:51.083Z,101656.09
2018-09-15T12:45:17.823Z,101659.92
2018-09-15T12:47:44.497Z,101657.94
2018-09-15T12:50:11.264Z,101658.08
2018-09-15T12:52:37.897Z,101659.41
2018-09-15T12:55:05.328Z,101660.70
2018-09-15T12:57:32.893Z,101658.42
2018-09-15T12:59:59.560Z,101666.27
2018-09-15T13:02:27.348Z,101668.44
2018-09-15T13:04:55.176Z,101668.58
2018-09-15T13:07:21.863Z,101659.51
2018-09-15T13:09:49.513Z,101666.30
2018-09-15T13:12:16.183Z,101673.05
2018-09-15T13:14:43.916Z,101667.98
2018-09-15T13:17:10.594Z,101670.05
2018-09-15T13:19:37.258Z,101670.39
2018-09-15T13:22:03.907Z,101670.05
2018-09-15T13:24:30.608Z,101666.05
2018-09-15T13:26:57.313Z,101668.58
2018-09-15T13:29:24.760Z,101665.31
2018-09-15T13:31:51.520Z,101668.36
2018-09-15T13:34:18.205Z,101660.38
2018-09-15T13:36:44.873Z,101666.19
2018-09-15T13:39:11.909Z,101661.47
2018-09-15T13:41:38.592Z,101672.95
2018-09-15T13:44:05.322Z,101672.11
2018-09-15T13:46:32.134Z,101673.69
2018-09-15T13:48:58.934Z,101673.58
2018-09-15T13:51:26.532Z,101676.23
2018-09-15T13:53:55.152Z,101670.18
2018-09-15T13:56:24.177Z,101675.14
2018-09-15T13:58:50.904Z,101673.47
2018-09-15T14:01:17.569Z,101678.30
2018-09-15T14:03:50.082Z,101680.25
2018-09-15T14:06:17.813Z,101674.69
2018-09-15T14:08:44.497Z,101667.06
2018-09-15T14:11:11.177Z,101675.77
2018-09-15T14:13:37.845Z,101668.64
2018-09-15T14:16:04.561Z,101663.31
2018-09-15T14:18:31.245Z,101674.17
2018-09-15T14:20:57.932Z,101667.66
2018-09-15T14:23:24.920Z,101669.12
2018-09-15T14:25:51.608Z,101670.07
2018-09-15T14:28:19.142Z,101662.96
2018-09-15T14:30:45.821Z,101658.48
2018-09-15T14:33:12.484Z,101658.59
2018-09-15T14:35:39.169Z,101664.30
2018-09-15T14:38:06.073Z,101662.09
2018-09-15T14:40:32.841Z,101669.23
2018-09-15T14:42:59.565Z,101663.07
2018-09-15T14:45:26.288Z,101667.41
2018-09-15T14:47:55.100Z,101666.70
2018-09-15T14:50:21.867Z,101666.70
2018-09-15T14:52:49.264Z,101668.53
2018-09-15T14:55:15.991Z,101667.69
2018-09-15T14:57:43.684Z,101665.03
2018-09-15T15:00:10.392Z,101672.02
2018-09-15T15:02:37.102Z,101668.66
2018-09-15T15:05:04.765Z,101666.46
2018-09-15T15:07:31.459Z,101662.26
2018-09-15T15:09:58.125Z,101665.27
2018-09-15T15:12:24.871Z,101667.44
2018-09-15T15:14:59.686Z,101671.08
2018-09-15T15:17:26.348Z,101670.72
2018-09-15T15:19:54.539Z,101674.22
2018-09-15T15:22:21.969Z,101669.15
2018-09-15T15:24:48.632Z,101673.03
2018-09-15T15:27:15.362Z,101677.97
2018-09-15T15:29:42.204Z,101678.80
2018-09-15T15:32:08.853Z,101678.35
2018-09-15T15:34:35.618Z,101683.28
2018-09-15T15:37:02.262Z,101682.80
2018-09-15T15:39:29.128Z,101689.09
2018-09-15T15:41:56.641Z,101690.06
2018-09-15T15:44:24.853Z,101688.73
2018-09-15T15:46:55.339Z,101692.73
2018-09-15T15:49:22.070Z,101691.05
2018-09-15T15:51:48.748Z,101690.91
2018-09-15T15:54:17.285Z,101691.39
2018-09-15T15:56:43.976Z,101692.48
2018-09-15T15:59:10.871Z,101694.06
2018-09-15T16:01:37.573Z,101690.55
2018-09-15T16:04:04.268Z,101693.22
2018-09-15T16:06:31.028Z,101692.23
2018-09-15T16:08:57.706Z,101692.38
2018-09-15T16:11:25.489Z,101696.36
2018-09-15T16:13:53.841Z,101698.67
2018-09-15T16:16:20.893Z,101698.77
2018-09-15T16:18:48.361Z,101704.09
2018-09-15T16:21:14.996Z,101706.16
2018-09-15T16:23:42.689Z,101703.11
2018-09-15T16:26:10.727Z,101704.44
2018-09-15T16:28:37.441Z,101704.44
2018-09-15T16:31:04.969Z,101713.75
2018-09-15T16:33:31.623Z,101715.70
2018-09-15T16:35:59.877Z,101724.17
2018-09-15T16:38:26.596Z,101725.25
2018-09-15T16:40:54.631Z,101722.59
2018-09-15T16:43:21.277Z,101730.19
2018-09-15T16:45:48.280Z,101725.72
2018-09-15T16:48:15.829Z,101723.93
2018-09-15T16:50:42.475Z,101718.85
2018-09-15T16:53:09.173Z,101723.55
2018-09-15T16:55:35.835Z,101719.55
2018-09-15T16:58:02.497Z,101727.05
2018-09-15T17:00:29.133Z,101728.29
2018-09-15T17:02:55.773Z,101732.50
2018-09-15T17:05:23.589Z,101730.81
2018-09-15T17:07:50.240Z,101732.14
2018-09-15T17:10:16.945Z,101729.97
2018-09-15T17:12:43.565Z,101735.78
2018-09-15T17:15:10.197Z,101736.72
2018-09-15T17:17:36.849Z,101737.59
2018-09-15T17:20:03.545Z,101734.80
2018-09-15T17:22:30.231Z,101747.14
2018-09-15T17:24:56.901Z,101745.67
2018-09-15T17:27:25.004Z,101741.82
2018-09-15T17:29:51.683Z,101744.58
2018-09-15T17:32:18.392Z,101745.20
2018-09-15T17:34:45.016Z,101755.60
2018-09-15T17:37:12.469Z,101759.83
2018-09-15T17:39:39.145Z,101754.88
2018-09-15T17:42:05.800Z,101752.47
2018-09-15T17:44:32.493Z,101754.03
2018-09-15T17:46:59.121Z,101759.12
2018-09-15T17:49:26.607Z,101770.81
2018-09-15T17:51:54.372Z,101770.83
2018-09-15T17:54:21.243Z,101768.03
2018-09-15T17:56:47.896Z,101774.81
2018-09-15T17:59:15.599Z,101783.27
2018-09-15T18:01:42.331Z,101786.53
2018-09-15T18:04:09.253Z,101784.48
2018-09-15T18:06:35.916Z,101789.16
2018-09-15T18:09:03.448Z,101794.59
2018-09-15T18:11:31.129Z,101794.97
2018-09-15T18:13:57.985Z,101797.73
2018-09-15T18:16:25.417Z,101793.37
2018-09-15T18:18:53.986Z,101787.08
2018-09-15T18:21:20.788Z,101793.84
2018-09-15T18:23:47.431Z,101792.16
2018-09-15T18:26:14.049Z,101795.42
2018-09-15T18:28:40.691Z,101799.41
2018-09-15T18:31:08.396Z,101804.97
2018-09-15T18:33:35.028Z,101801.24
2018-09-15T18:36:01.781Z,101811.27
2018-09-15T18:38:28.373Z,101800.50
2018-09-15T18:40:55.400Z,101809.95
2018-09-15T18:43:23.876Z,101816.46
2018-09-15T18:45:50.529Z,101817.92
2018-09-15T18:48:17.208Z,101817.44
2018-09-15T18:50:43.929Z,101822.76
2018-09-15T18:53:10.556Z,101821.78
2018-09-15T18:55:38.176Z,101825.06
2018-09-15T18:58:04.900Z,101821.20
2018-09-15T19:00:31.621Z,101826.88
2018-09-15T19:02:59.213Z,101826.14
2018-09-15T19:05:25.865Z,101825.44
2018-09-15T19:07:53.750Z,101831.73
2018-09-15T19:10:21.420Z,101836.20
2018-09-15T19:12:48.084Z,101840.42
2018-09-15T19:15:15.589Z,101846.33
2018-09-15T19:17:42.245Z,101853.73
2018-09-15T19:20:08.878Z,101860.11
2018-09-15T19:22:35.537Z,101865.09
2018-09-15T19:25:03.187Z,101873.78
2018-09-15T19:27:29.953Z,101873.42
2018-09-15T19:29:57.769Z,101867.97
2018-09-15T19:32:26.077Z,101876.21
2018-09-15T19:34:56.208Z,101876.80
2018-09-15T19:37:23.876Z,101885.16
2018-09-15T19:39:50.670Z,101879.09
2018-09-15T19:42:18.214Z,101882.23
2018-09-15T19:44:44.854Z,101885.52
2018-09-15T19:47:11.517Z,101884.29
2018-09-15T19:49:39.125Z,101900.59
2018-09-15T19:52:05.815Z,101900.02
2018-09-15T19:54:33.297Z,101900.98
2018-09-15T19:57:00.116Z,101905.42
2018-09-15T19:59:26.769Z,101906.30
2018-09-15T20:01:55.421Z,101902.54
2018-09-15T20:04:23.457Z,101896.51
2018-09-15T20:06:51.254Z,101901.09
2018-09-15T20:09:18.753Z,101904.36
2018-09-15T20:11:45.406Z,101908.96
2018-09-15T20:14:12.096Z,101910.16
2018-09-15T20:16:39.096Z,101915.22
2018-09-15T20:19:05.359Z,101920.44
2018-09-15T20:21:31.550Z,101920.80
2018-09-15T20:23:58.240Z,101918.14
2018-09-15T20:26:25.677Z,101922.36
2018-09-15T20:28:55.036Z,101921.52
2018-09-15T20:31:24.540Z,101927.31
2018-09-15T20:33:53.781Z,101924.04
2018-09-15T20:36:20.484Z,101922.97
2018-09-15T20:38:48.009Z,101931.43
2018-09-15T20:41:14.701Z,101928.03
2018-09-15T20:43:41.339Z,101928.16
2018-09-15T20:46:08.198Z,101929.84
2018-09-15T20:48:34.832Z,101932.98
2018-09-15T20:51:01.876Z,101934.45
2018-09-15T20:53:28.512Z,101940.25
2018-09-15T20:55:55.305Z,101931.79
2018-09-15T20:58:24.792Z,101935.64
2018-09-15T21:00:54.004Z,101936.62
2018-09-15T21:03:20.641Z,101936.36
2018-09-15T21:05:48.193Z,101935.77
2018-09-15T21:08:14.836Z,101934.55
2018-09-15T21:10:41.504Z,101936.97
2018-09-15T21:13:08.136Z,101937.55
2018-09-15T21:15:35.581Z,101939.14
2018-09-15T21:18:02.220Z,101939.98
2018-09-15T21:20:28.867Z,101936.00
2018-09-15T21:22:56.469Z,101938.92
2018-09-15T21:25:25.068Z,101936.00
2018-09-15T21:27:57.224Z,101930.91
2018-09-15T21:30:25.308Z,101930.33
2018-09-15T21:32:54.400Z,101935.51
2018-09-15T21:35:21.044Z,101939.86
2018-09-15T21:37:47.925Z,101940.56
2018-09-15T21:40:14.737Z,101946.86
2018-09-15T21:42:41.552Z,101947.95
2018-09-15T21:45:08.253Z,101948.31
2018-09-15T21:47:34.888Z,101947.70
2018-09-15T21:50:01.537Z,101952.88
2018-09-15T21:52:28.188Z,101954.33
2018-09-15T21:54:56.829Z,101964.48
2018-09-15T21:57:25.717Z,101969.08
2018-09-15T21:59:54.014Z,101967.27
2018-09-15T22:02:24.571Z,101966.28
2018-09-15T22:04:51.831Z,101966.28
2018-09-15T22:07:18.515Z,101967.61
2018-09-15T22:09:46.384Z,101965.05
2018-09-15T22:12:13.033Z,101975.80
2018-09-15T22:14:39.689Z,101980.15
2018-09-15T22:17:06.349Z,101983.91
2018-09-15T22:19:33.010Z,101982.93
2018-09-15T22:21:59.736Z,101990.29
2018-09-15T22:24:26.388Z,101991.03
2018-09-15T22:26:54.212Z,101990.55
2018-09-15T22:29:21.861Z,101991.44
2018-09-15T22:31:48.581Z,101992.28
2018-09-15T22:34:15.268Z,101995.28
2018-09-15T22:36:41.898Z,101992.27
2018-09-15T22:39:08.985Z,101994.94
2018-09-15T22:41:35.989Z,101990.36
2018-09-15T22:44:02.628Z,101993.16
2018-09-15T22:46:29.300Z,101992.77
2018-09-15T22:48:55.944Z,101988.64
2018-09-15T22:51:24.648Z,101993.50
2018-09-15T22:53:53.093Z,101989.39
2018-09-15T22:56:19.820Z,101985.05
2018-09-15T22:58:47.479Z,101992.03
2018-09-15T23:01:15.042Z,101994.70
2018-09-15T23:03:42.531Z,101993.86
2018-09-15T23:06:09.196Z,101992.75
2018-09-15T23:08:36.852Z,101996.39
2018-09-15T23:11:04.917Z,101995.77
2018-09-15T23:13:31.552Z,101997.94
2018-09-15T23:16:00.224Z,102000.86
2018-09-15T23:18:27.827Z,101996.75
2018-09-15T23:20:56.250Z,101995.55
2018-09-15T23:23:24.485Z,101996.27
2018-09-15T23:25:51.144Z,101998.20
2018-09-15T23:28:18.724Z,101997.50
2018-09-15T23:30:46.244Z,101998.69
2018-09-15T23:33:12.935Z,102004.58
2018-09-15T23:35:40.564Z,101999.17
2018-09-15T23:38:08.034Z,102003.16
2018-09-15T23:40:34.695Z,102004.23
2018-09-15T23:43:02.184Z,102004.72
2018-09-15T23:45:28.902Z,102004.48
2018-09-15T23:47:55.585Z,102003.78
2018-09-15T23:50:25.401Z,101999.80
2018-09-15T23:52:52.921Z,102005.56
2018-09-15T23:55:19.608Z,102003.39
2018-09-15T23:57:46.372Z,102003.03
